Terminal Aerodrome Forecast
Issued by NWS

Home | Current Version | Previous Version | Text Only | Print | Product List | Glossary On
Versions: 1 2 3 4 5 6 7 8 9 10 11 12 13 14 15 16 17 18 19
000
FTUS46 KSGX 220500
TAFONT
TAF
KONT 220520Z 2206/2312 VRB05KT P6SM SCT100
     FM222100 25012KT P6SM SKC
     FM230400 23005KT P6SM SKC=

USA.gov is the U.S. government's official web portal to all federal, state and local government web resources and services.